Time;durP1;ratioP1;P1;durP2;ratioP2;P2;SDS_P1;SDS_P2;PMS_P1;PMS_P2;Temp;Humidity;BMP_temperature;BMP_pressure;BME280_temperature;BME280_humidity;BME280_pressure;Samples;Min_cycle;Max_cycle;Signal;HPM_P1;HPM_P2
2021/01/21 00:00:42;;;;;;;1.60;1.10;;;11.00;92.60;;;;;;5102012;28;20517;-77
2021/01/21 00:03:08;;;;;;;2.53;2.00;;;11.00;92.30;;;;;;5102392;28;20460;-76
2021/01/21 00:05:35;;;;;;;1.60;1.10;;;10.90;92.60;;;;;;5102349;28;20452;-76
2021/01/21 00:08:01;;;;;;;1.60;1.10;;;11.00;92.70;;;;;;5109202;28;20453;-76
2021/01/21 00:10:28;;;;;;;1.60;1.20;;;11.00;92.40;;;;;;5101410;28;20501;-76
2021/01/21 00:12:55;;;;;;;1.60;1.20;;;11.00;92.50;;;;;;5106077;28;20484;-76
2021/01/21 00:15:21;;;;;;;1.60;1.20;;;11.00;92.30;;;;;;5108389;28;20725;-75
2021/01/21 00:17:48;;;;;;;1.60;1.20;;;11.10;91.80;;;;;;5105018;28;20474;-75
2021/01/21 00:20:15;;;;;;;1.53;1.10;;;11.20;91.60;;;;;;5109795;28;20491;-76
2021/01/21 00:22:41;;;;;;;1.60;1.07;;;11.20;91.30;;;;;;5104279;28;20778;-75
2021/01/21 00:25:09;;;;;;;1.60;1.10;;;11.30;91.50;;;;;;5107810;28;20459;-76
2021/01/21 00:27:35;;;;;;;1.60;1.10;;;11.30;91.70;;;;;;5108409;28;20441;-77
2021/01/21 00:30:06;;;;;;;1.57;1.10;;;11.30;91.30;;;;;;5108001;28;20491;-76
2021/01/21 00:32:33;;;;;;;1.57;1.10;;;11.30;91.40;;;;;;5106971;28;20713;-76
2021/01/21 00:34:59;;;;;;;1.60;1.10;;;11.30;91.20;;;;;;5106588;28;20613;-77
2021/01/21 00:37:26;;;;;;;1.60;1.10;;;11.30;91.00;;;;;;5109315;28;20471;-78
2021/01/21 00:39:52;;;;;;;1.60;1.10;;;11.30;90.90;;;;;;5107561;28;20485;-76
2021/01/21 00:42:19;;;;;;;1.60;1.20;;;11.30;91.10;;;;;;5101027;28;20479;-76
2021/01/21 00:44:45;;;;;;;1.57;1.00;;;11.30;91.20;;;;;;5098083;28;20460;-75
2021/01/21 00:47:12;;;;;;;1.57;1.10;;;11.30;91.00;;;;;;5089636;28;20504;-76
2021/01/21 00:49:39;;;;;;;1.60;1.20;;;11.30;90.80;;;;;;5088416;28;20604;-75
2021/01/21 00:52:05;;;;;;;1.60;1.20;;;11.30;90.80;;;;;;5102550;28;20471;-79
2021/01/21 00:54:32;;;;;;;1.60;1.20;;;11.30;90.40;;;;;;5100962;28;20496;-75
2021/01/21 00:56:58;;;;;;;1.53;1.10;;;11.30;90.70;;;;;;5102889;28;20454;-76
2021/01/21 00:59:25;;;;;;;1.60;1.10;;;11.30;90.80;;;;;;5106280;28;20715;-76
2021/01/21 01:01:51;;;;;;;1.57;1.10;;;11.30;90.90;;;;;;5101672;28;20487;-75
2021/01/21 01:04:19;;;;;;;1.60;1.20;;;11.20;90.80;;;;;;5105509;28;20462;-75
2021/01/21 01:06:45;;;;;;;1.53;1.10;;;11.20;90.80;;;;;;5099756;28;20465;-76
2021/01/21 01:09:12;;;;;;;1.53;1.10;;;11.30;91.00;;;;;;5095869;28;20473;-76
2021/01/21 01:11:38;;;;;;;1.57;1.10;;;11.30;90.70;;;;;;5102302;28;20476;-76
2021/01/21 01:14:05;;;;;;;1.57;1.10;;;11.40;90.50;;;;;;5100001;28;20998;-76
2021/01/21 01:16:31;;;;;;;1.57;1.13;;;11.40;90.40;;;;;;5105818;28;20456;-76
2021/01/21 01:18:58;;;;;;;1.60;1.20;;;11.40;90.30;;;;;;5108303;28;20538;-76
2021/01/21 01:21:25;;;;;;;1.57;1.10;;;11.40;90.30;;;;;;5101333;28;20465;-76
2021/01/21 01:23:52;;;;;;;1.60;1.20;;;11.50;90.00;;;;;;5105826;28;20457;-76
2021/01/21 01:26:20;;;;;;;1.60;1.20;;;11.50;90.10;;;;;;5109667;28;20460;-75
2021/01/21 01:28:46;;;;;;;1.60;1.20;;;11.50;89.80;;;;;;5113135;28;20476;-75
2021/01/21 01:31:13;;;;;;;1.60;1.20;;;11.50;89.50;;;;;;5105297;28;20460;-75
2021/01/21 01:33:39;;;;;;;1.57;1.10;;;11.50;89.40;;;;;;5108549;28;20510;-76
2021/01/21 01:36:06;;;;;;;1.53;1.10;;;11.50;89.00;;;;;;5111679;28;20464;-76
2021/01/21 01:38:34;;;;;;;1.60;1.17;;;11.50;89.20;;;;;;5111133;28;20573;-76
2021/01/21 01:41:00;;;;;;;1.57;1.10;;;11.50;89.20;;;;;;5105231;28;20481;-75
2021/01/21 01:43:27;;;;;;;1.57;1.10;;;11.40;89.30;;;;;;5106428;28;20448;-76
2021/01/21 01:45:53;;;;;;;1.57;1.00;;;11.40;89.30;;;;;;5112218;28;20449;-76
2021/01/21 01:48:21;;;;;;;1.60;1.10;;;11.40;88.90;;;;;;5107235;28;20869;-76
2021/01/21 01:50:47;;;;;;;1.60;1.10;;;11.40;89.10;;;;;;5110560;28;20544;-76
2021/01/21 01:53:14;;;;;;;1.57;1.00;;;11.50;88.90;;;;;;5106089;28;20472;-76
2021/01/21 01:55:41;;;;;;;1.57;1.10;;;11.50;88.80;;;;;;5104201;28;20453;-75
2021/01/21 01:58:09;;;;;;;1.57;1.10;;;11.40;88.80;;;;;;5111706;28;20459;-76
2021/01/21 02:00:36;;;;;;;1.60;1.10;;;11.40;89.00;;;;;;5110300;28;20484;-76
2021/01/21 02:03:03;;;;;;;1.60;1.20;;;11.40;88.80;;;;;;5100040;28;20466;-75
2021/01/21 02:05:30;;;;;;;1.53;1.00;;;11.40;89.00;;;;;;5111763;28;20449;-76
2021/01/21 02:07:57;;;;;;;1.60;1.20;;;11.40;88.90;;;;;;5111608;28;20464;-77
2021/01/21 02:10:23;;;;;;;1.80;1.60;;;11.40;89.30;;;;;;5104939;28;20518;-75
2021/01/21 02:13:22;;;;;;;1.57;1.10;;;11.40;88.90;;;;;;5109359;28;20659;-76
2021/01/21 02:15:58;;;;;;;1.53;1.10;;;11.40;88.90;;;;;;5084462;28;20518;-76
2021/01/21 02:18:32;;;;;;;1.57;1.10;;;11.40;88.90;;;;;;5108666;28;20467;-75
2021/01/21 02:21:30;;;;;;;1.60;1.17;;;11.40;88.90;;;;;;5108443;28;20483;-76
2021/01/21 02:24:25;;;;;;;1.57;1.10;;;11.40;88.80;;;;;;5110482;28;20453;-76
2021/01/21 02:26:56;;;;;;;1.57;1.10;;;11.50;88.80;;;;;;5084920;28;20451;-75
2021/01/21 02:29:27;;;;;;;1.60;1.10;;;11.50;88.70;;;;;;5103989;28;20470;-76
2021/01/21 02:32:09;;;;;;;1.60;1.17;;;11.50;88.70;;;;;;5106293;28;20465;-76
2021/01/21 02:34:43;;;;;;;1.53;1.10;;;11.50;88.50;;;;;;5104816;28;20525;-77
2021/01/21 02:37:14;;;;;;;1.57;1.10;;;11.60;88.50;;;;;;5105194;28;20472;-76
2021/01/21 02:39:47;;;;;;;1.53;1.07;;;11.60;88.50;;;;;;5106085;28;20488;-76
2021/01/21 02:42:14;;;;;;;1.53;1.10;;;11.60;88.50;;;;;;5107576;28;20481;-76
2021/01/21 02:44:40;;;;;;;1.57;1.10;;;11.60;88.80;;;;;;5107238;28;20480;-76
2021/01/21 02:47:07;;;;;;;1.57;1.10;;;11.50;89.00;;;;;;5101300;28;20448;-75
2021/01/21 02:49:34;;;;;;;1.60;1.17;;;11.50;88.80;;;;;;5099268;28;20472;-75
2021/01/21 02:52:08;;;;;;;1.60;1.20;;;11.50;88.90;;;;;;5103113;28;20464;-76
2021/01/21 02:54:46;;;;;;;1.57;1.10;;;11.60;88.90;;;;;;5107357;28;20473;-75
2021/01/21 02:57:18;;;;;;;1.50;1.00;;;11.50;89.00;;;;;;5105093;28;20452;-78
2021/01/21 02:59:47;;;;;;;1.60;1.20;;;11.60;89.00;;;;;;5108433;28;20483;-75
2021/01/21 03:02:15;;;;;;;1.60;1.10;;;11.60;89.00;;;;;;5105973;28;20467;-75
2021/01/21 03:04:42;;;;;;;1.60;1.20;;;11.60;88.90;;;;;;5107915;28;20440;-76
2021/01/21 03:07:12;;;;;;;1.60;1.10;;;11.60;89.10;;;;;;5104300;28;20461;-75
2021/01/21 03:09:43;;;;;;;1.60;1.10;;;11.60;89.20;;;;;;5109098;28;20480;-76
2021/01/21 03:12:20;;;;;;;1.50;1.10;;;11.60;89.20;;;;;;5105057;28;20457;-76
2021/01/21 03:14:48;;;;;;;1.60;1.20;;;11.60;89.40;;;;;;5105376;28;20456;-76
2021/01/21 03:17:15;;;;;;;1.60;1.10;;;11.60;89.40;;;;;;5109464;28;20433;-76
2021/01/21 03:19:41;;;;;;;1.57;1.10;;;11.60;89.50;;;;;;5108246;28;20492;-76
2021/01/21 03:22:08;;;;;;;1.57;1.10;;;11.50;89.70;;;;;;5107776;28;20456;-75
2021/01/21 03:24:35;;;;;;;1.60;1.10;;;11.50;89.60;;;;;;5107869;28;20445;-77
2021/01/21 03:27:01;;;;;;;1.53;1.10;;;11.60;89.60;;;;;;5109535;28;20459;-75
2021/01/21 03:29:28;;;;;;;1.57;1.10;;;11.60;89.60;;;;;;5108489;28;20487;-75
2021/01/21 03:31:55;;;;;;;1.60;1.10;;;11.60;89.50;;;;;;5104106;28;20479;-75
2021/01/21 03:34:22;;;;;;;1.57;1.10;;;11.60;89.50;;;;;;5108388;28;20461;-76
2021/01/21 03:36:48;;;;;;;1.57;1.10;;;11.60;89.50;;;;;;5104661;28;20468;-77
2021/01/21 03:39:16;;;;;;;1.60;1.20;;;11.70;89.60;;;;;;5105059;28;20469;-76
2021/01/21 03:41:42;;;;;;;1.53;1.00;;;11.70;89.30;;;;;;5104368;28;20469;-77
2021/01/21 03:44:09;;;;;;;1.60;1.20;;;11.70;89.30;;;;;;5107209;28;20840;-76
2021/01/21 03:46:36;;;;;;;1.60;1.10;;;11.70;89.50;;;;;;5109541;28;20449;-76
2021/01/21 03:49:02;;;;;;;1.60;1.20;;;11.70;89.30;;;;;;5108324;28;20472;-75
2021/01/21 03:51:29;;;;;;;1.70;1.37;;;11.80;89.20;;;;;;5105207;28;20465;-76
2021/01/21 03:53:55;;;;;;;1.57;1.10;;;11.80;89.10;;;;;;5102365;28;20452;-76
2021/01/21 03:56:23;;;;;;;1.60;1.10;;;11.90;89.10;;;;;;5107023;28;20452;-75
2021/01/21 03:58:49;;;;;;;1.60;1.10;;;11.90;88.90;;;;;;5102051;28;20479;-76
2021/01/21 04:01:16;;;;;;;1.57;1.03;;;11.90;89.10;;;;;;5106648;28;20493;-76
2021/01/21 04:03:42;;;;;;;1.57;1.10;;;11.90;89.10;;;;;;5106260;28;20460;-76
2021/01/21 04:06:10;;;;;;;1.60;1.20;;;11.90;89.20;;;;;;5108473;28;20463;-77
2021/01/21 04:08:36;;;;;;;1.60;1.10;;;11.90;89.40;;;;;;5104898;28;20448;-76
2021/01/21 04:11:03;;;;;;;1.60;1.10;;;11.90;89.30;;;;;;5107526;28;20432;-75
2021/01/21 04:13:30;;;;;;;1.57;1.00;;;11.90;89.40;;;;;;5108718;28;20539;-75
2021/01/21 04:15:57;;;;;;;1.57;1.10;;;11.90;89.40;;;;;;5098439;28;20456;-76
2021/01/21 04:18:23;;;;;;;1.53;1.10;;;11.90;89.70;;;;;;5107900;28;20452;-76
2021/01/21 04:20:50;;;;;;;1.53;1.07;;;11.90;89.90;;;;;;5102686;28;20491;-77
2021/01/21 04:23:16;;;;;;;1.60;1.10;;;11.90;90.00;;;;;;5102720;28;20453;-76
2021/01/21 04:25:43;;;;;;;1.57;1.10;;;11.90;90.30;;;;;;5109146;28;21071;-75
2021/01/21 04:28:09;;;;;;;1.60;1.20;;;11.90;90.60;;;;;;5108101;28;20480;-76
2021/01/21 04:30:37;;;;;;;1.60;1.10;;;11.80;90.80;;;;;;5106102;28;20795;-75
2021/01/21 04:33:04;;;;;;;1.60;1.10;;;11.80;91.20;;;;;;5107196;28;20547;-76
2021/01/21 04:35:30;;;;;;;1.57;1.10;;;11.80;91.40;;;;;;5107643;28;20486;-76
2021/01/21 04:37:58;;;;;;;1.60;1.10;;;11.80;91.60;;;;;;5108475;28;20453;-77
2021/01/21 04:40:26;;;;;;;1.53;1.10;;;11.70;91.80;;;;;;5101487;28;20508;-77
2021/01/21 04:42:52;;;;;;;1.60;1.20;;;11.70;91.80;;;;;;5106592;28;20661;-76
2021/01/21 04:45:19;;;;;;;1.60;1.10;;;11.70;92.00;;;;;;5108635;28;20437;-75
2021/01/21 04:47:47;;;;;;;1.57;1.10;;;11.70;92.10;;;;;;5105088;28;20511;-74
2021/01/21 04:50:14;;;;;;;1.60;1.10;;;11.70;92.10;;;;;;5107866;28;20477;-75
2021/01/21 04:52:44;;;;;;;1.60;1.10;;;11.70;92.20;;;;;;5105912;28;20455;-75
2021/01/21 04:55:17;;;;;;;1.60;1.20;;;11.70;92.30;;;;;;5103783;28;20608;-75
2021/01/21 04:57:49;;;;;;;1.60;1.20;;;11.70;92.40;;;;;;5104369;28;20457;-75
2021/01/21 05:00:16;;;;;;;1.57;1.00;;;11.70;92.50;;;;;;5107131;28;20491;-76
2021/01/21 05:02:45;;;;;;;1.60;1.03;;;11.70;92.80;;;;;;5108131;28;20525;-76
2021/01/21 05:05:13;;;;;;;1.57;1.00;;;11.70;92.90;;;;;;5109917;28;20461;-75
2021/01/21 05:07:40;;;;;;;1.53;1.03;;;11.70;93.00;;;;;;5107040;28;20534;-76
2021/01/21 05:10:08;;;;;;;1.57;1.10;;;11.70;93.30;;;;;;5108635;28;20473;-76
2021/01/21 05:12:34;;;;;;;1.60;1.10;;;11.60;93.30;;;;;;5108872;28;20472;-76
2021/01/21 05:18:29;;;;;;;1.57;1.10;;;11.60;93.90;;;;;;5085442;28;20515;-76
2021/01/21 05:20:57;;;;;;;1.60;1.10;;;11.60;94.30;;;;;;5099114;28;20476;-74
2021/01/21 05:23:25;;;;;;;1.53;1.10;;;11.60;94.50;;;;;;5103324;28;20600;-75
2021/01/21 05:25:52;;;;;;;1.60;1.10;;;11.60;94.70;;;;;;5105215;28;20520;-75
2021/01/21 05:28:20;;;;;;;1.60;1.30;;;11.60;95.80;;;;;;5097883;28;20468;-78
2021/01/21 05:30:47;;;;;;;1.60;1.10;;;11.40;97.20;;;;;;5092745;28;20480;-81
2021/01/21 05:33:15;;;;;;;1.57;1.10;;;10.60;95.20;;;;;;5084669;28;21055;-77
2021/01/21 05:35:42;;;;;;;1.60;1.13;;;10.00;97.10;;;;;;5092621;28;21057;-76
2021/01/21 05:38:10;;;;;;;1.60;1.10;;;9.60;98.20;;;;;;5094670;28;20452;-76
2021/01/21 05:40:37;;;;;;;1.53;1.00;;;9.30;98.20;;;;;;5094209;28;21014;-76
2021/01/21 05:43:04;;;;;;;1.60;1.13;;;9.00;98.20;;;;;;5094381;28;20460;-78
2021/01/21 05:45:31;;;;;;;1.60;1.30;;;8.70;98.20;;;;;;5096391;28;20457;-78
2021/01/21 05:47:58;;;;;;;1.57;1.10;;;8.40;98.20;;;;;;5092753;28;20473;-78
2021/01/21 05:50:25;;;;;;;1.60;1.20;;;8.20;98.20;;;;;;5100048;28;21012;-79
2021/01/21 05:52:54;;;;;;;1.60;1.10;;;8.00;98.20;;;;;;5098824;28;20464;-79
2021/01/21 05:55:25;;;;;;;1.60;1.20;;;7.90;98.20;;;;;;5092334;28;20471;-79
2021/01/21 05:57:56;;;;;;;1.57;1.13;;;7.80;98.20;;;;;;5090518;28;20467;-78
2021/01/21 06:00:26;;;;;;;1.60;1.30;;;7.70;98.20;;;;;;5093440;28;20896;-78
2021/01/21 06:02:53;;;;;;;1.60;1.20;;;7.60;98.20;;;;;;5087727;28;20465;-78
2021/01/21 06:05:21;;;;;;;1.57;1.10;;;7.40;98.20;;;;;;5095594;28;20460;-77
2021/01/21 06:07:48;;;;;;;1.60;1.30;;;7.40;98.20;;;;;;5094277;28;20472;-77
2021/01/21 06:10:15;;;;;;;1.60;1.20;;;7.20;98.20;;;;;;5093323;28;20986;-77
2021/01/21 06:12:45;;;;;;;1.60;1.20;;;7.20;98.20;;;;;;5096512;28;20475;-77
2021/01/21 06:15:14;;;;;;;1.60;1.10;;;7.10;98.20;;;;;;5106279;28;21002;-78
2021/01/21 06:17:41;;;;;;;1.60;1.40;;;7.00;98.20;;;;;;5109137;28;20463;-75
2021/01/21 06:20:08;;;;;;;2.07;1.87;;;7.00;98.20;;;;;;5108246;28;20542;-75
2021/01/21 06:22:39;;;;;;;1.60;1.20;;;6.90;98.20;;;;;;5105583;28;20736;-75
2021/01/21 06:25:10;;;;;;;1.60;1.23;;;6.90;98.20;;;;;;5106748;28;20488;-74
2021/01/21 06:27:39;;;;;;;1.57;1.23;;;6.90;98.20;;;;;;5106980;28;20457;-75
2021/01/21 06:30:10;;;;;;;1.60;1.20;;;6.90;98.20;;;;;;5098392;28;20484;-75
2021/01/21 06:32:46;;;;;;;1.60;1.40;;;6.80;98.20;;;;;;5107348;28;20456;-75
2021/01/21 06:35:15;;;;;;;1.60;1.50;;;6.80;98.20;;;;;;5106328;28;20459;-74
2021/01/21 06:37:52;;;;;;;1.60;1.20;;;6.80;98.20;;;;;;5105429;28;20472;-74
2021/01/21 06:40:21;;;;;;;1.60;1.30;;;6.70;98.20;;;;;;5099034;28;20551;-74
2021/01/21 06:42:56;;;;;;;1.60;1.20;;;6.70;98.20;;;;;;5102494;28;20701;-75
2021/01/21 06:45:24;;;;;;;1.60;1.30;;;6.70;98.20;;;;;;5107729;28;20436;-75
2021/01/21 06:47:50;;;;;;;1.60;1.30;;;6.70;98.20;;;;;;5110651;28;20469;-75
2021/01/21 06:50:18;;;;;;;1.60;1.20;;;6.60;98.20;;;;;;5113338;28;20810;-75
2021/01/21 06:52:46;;;;;;;1.60;1.20;;;6.60;98.20;;;;;;5098875;28;20452;-75
2021/01/21 06:55:13;;;;;;;1.60;1.20;;;6.60;98.20;;;;;;5106606;28;20534;-75
2021/01/21 06:57:44;;;;;;;1.60;1.30;;;6.60;98.20;;;;;;5105252;28;20457;-75
2021/01/21 07:00:15;;;;;;;1.60;1.30;;;6.60;98.20;;;;;;5105079;28;20937;-75
2021/01/21 07:02:45;;;;;;;1.60;1.40;;;6.50;98.20;;;;;;5105758;28;20490;-75
2021/01/21 07:05:12;;;;;;;1.60;1.30;;;6.50;98.20;;;;;;5103166;28;20464;-75
2021/01/21 07:08:02;;;;;;;1.60;1.30;;;6.50;98.20;;;;;;5103159;28;20965;-75
2021/01/21 07:10:40;;;;;;;1.60;1.37;;;6.50;98.20;;;;;;5103006;28;20857;-75
2021/01/21 07:13:09;;;;;;;1.60;1.50;;;6.50;98.20;;;;;;5102711;28;20460;-76
2021/01/21 07:15:40;;;;;;;1.60;1.30;;;6.50;98.20;;;;;;5102826;28;20959;-76
2021/01/21 07:18:13;;;;;;;1.60;1.27;;;6.50;98.20;;;;;;5095119;28;20453;-75
2021/01/21 07:21:11;;;;;;;1.60;1.30;;;6.50;98.20;;;;;;5100842;28;20484;-76
2021/01/21 07:23:42;;;;;;;1.60;1.30;;;6.50;98.20;;;;;;5091223;28;20464;-75
2021/01/21 07:26:30;;;;;;;1.60;1.30;;;6.50;98.20;;;;;;5102749;28;20487;-76
2021/01/21 07:29:03;;;;;;;1.60;1.30;;;6.50;98.20;;;;;;5100888;28;20511;-76
2021/01/21 07:31:30;;;;;;;1.60;1.30;;;6.50;98.20;;;;;;5091423;28;20480;-76
2021/01/21 07:34:24;;;;;;;1.60;1.20;;;6.50;98.20;;;;;;5092857;28;20873;-74
2021/01/21 07:37:12;;;;;;;1.60;1.30;;;6.50;98.20;;;;;;5059459;28;20460;-76
2021/01/21 07:40:08;;;;;;;1.60;1.50;;;6.60;98.20;;;;;;5098460;28;20896;-76
2021/01/21 07:42:56;;;;;;;1.60;1.40;;;6.60;98.20;;;;;;5076299;28;20488;-75
2021/01/21 07:45:29;;;;;;;1.60;1.50;;;6.60;98.20;;;;;;5088835;28;20559;-76
2021/01/21 07:47:57;;;;;;;1.60;1.33;;;6.60;98.20;;;;;;5097868;28;20467;-75
2021/01/21 07:50:36;;;;;;;1.60;1.20;;;6.60;98.20;;;;;;5100758;28;20471;-76
2021/01/21 07:53:16;;;;;;;1.60;1.30;;;6.60;98.20;;;;;;5095890;28;20740;-75
2021/01/21 07:55:43;;;;;;;1.60;1.30;;;6.60;98.20;;;;;;5099319;28;20489;-76
2021/01/21 07:58:20;;;;;;;1.60;1.30;;;6.60;98.20;;;;;;5097323;28;20461;-75
2021/01/21 08:00:48;;;;;;;1.60;1.40;;;6.60;98.20;;;;;;5097496;28;20511;-75
2021/01/21 08:03:15;;;;;;;1.60;1.30;;;6.60;98.20;;;;;;5098110;28;20495;-75
2021/01/21 08:05:43;;;;;;;1.60;1.20;;;6.60;98.20;;;;;;5081665;28;20496;-75
2021/01/21 08:08:09;;;;;;;1.60;1.30;;;6.60;98.20;;;;;;5064816;28;20491;-75
2021/01/21 08:10:37;;;;;;;1.67;1.40;;;6.50;98.20;;;;;;5058643;28;20496;-75
2021/01/21 08:13:04;;;;;;;1.60;1.30;;;6.50;98.20;;;;;;5050801;28;20462;-75
2021/01/21 08:15:32;;;;;;;1.60;1.20;;;6.50;98.20;;;;;;5056735;28;20454;-75
2021/01/21 08:17:59;;;;;;;1.60;1.30;;;6.50;98.20;;;;;;5057617;28;20490;-76
2021/01/21 08:20:27;;;;;;;1.60;1.20;;;6.40;98.20;;;;;;5050225;28;20552;-76
2021/01/21 08:22:56;;;;;;;1.60;1.30;;;6.40;98.20;;;;;;5055413;28;20906;-76
2021/01/21 08:25:23;;;;;;;1.67;1.40;;;6.40;98.20;;;;;;5053599;28;20458;-76
2021/01/21 08:27:51;;;;;;;1.60;1.30;;;6.30;98.20;;;;;;5057413;28;20462;-76
2021/01/21 08:30:22;;;;;;;1.60;1.20;;;6.30;98.20;;;;;;5051756;28;21021;-76
2021/01/21 08:32:53;;;;;;;1.60;1.30;;;6.30;98.20;;;;;;5052172;28;20845;-75
2021/01/21 08:35:24;;;;;;;1.70;1.50;;;6.20;98.20;;;;;;5052606;28;20455;-76
2021/01/21 08:37:54;;;;;;;1.60;1.40;;;6.20;98.20;;;;;;5058322;28;20466;-76
2021/01/21 08:40:23;;;;;;;1.60;1.40;;;6.20;98.20;;;;;;5050409;28;20493;-76
2021/01/21 08:42:50;;;;;;;1.70;1.50;;;6.20;98.20;;;;;;5046392;28;20997;-77
2021/01/21 08:45:18;;;;;;;1.60;1.37;;;6.20;98.20;;;;;;5051137;28;20485;-76
2021/01/21 08:47:46;;;;;;;1.60;1.20;;;6.30;98.20;;;;;;5047289;28;20465;-75
2021/01/21 08:50:14;;;;;;;1.60;1.30;;;6.40;98.20;;;;;;5045059;28;20521;-76
2021/01/21 08:52:59;;;;;;;1.60;1.30;;;6.50;98.20;;;;;;5050551;28;20486;-76
2021/01/21 08:55:45;;;;;;;1.60;1.30;;;6.70;98.20;;;;;;5053713;28;20462;-76
2021/01/21 08:58:13;;;;;;;1.60;1.30;;;6.80;98.20;;;;;;5048570;28;20496;-75
2021/01/21 09:00:57;;;;;;;1.60;1.30;;;6.90;98.20;;;;;;5047965;28;20517;-75
2021/01/21 09:03:32;;;;;;;1.70;1.60;;;7.00;98.20;;;;;;5045396;28;20469;-77
2021/01/21 09:05:59;;;;;;;1.60;1.40;;;7.00;98.20;;;;;;5043132;22;20578;-75
2021/01/21 09:08:25;;;;;;;1.60;1.20;;;7.10;98.20;;;;;;5005428;28;20476;-77
2021/01/21 09:10:56;;;;;;;1.60;1.20;;;7.10;98.20;;;;;;5008002;28;20594;-76
2021/01/21 09:13:23;;;;;;;1.60;1.30;;;7.20;98.20;;;;;;5010066;28;20637;-75
2021/01/21 09:15:58;;;;;;;1.60;1.30;;;7.20;98.20;;;;;;5009025;28;20468;-76
2021/01/21 09:18:44;;;;;;;1.60;1.23;;;7.30;98.20;;;;;;5009395;28;20487;-77
2021/01/21 09:21:14;;;;;;;1.60;1.30;;;7.40;98.20;;;;;;5007537;28;20492;-76
2021/01/21 09:23:41;;;;;;;1.60;1.30;;;7.40;98.20;;;;;;5007197;28;20504;-75
2021/01/21 09:26:12;;;;;;;1.60;1.20;;;7.50;98.20;;;;;;5010059;28;20472;-75
2021/01/21 09:28:55;;;;;;;1.60;1.20;;;7.50;98.20;;;;;;5013236;28;20472;-76
2021/01/21 09:31:22;;;;;;;1.60;1.20;;;7.60;98.20;;;;;;5014055;28;20471;-76
2021/01/21 09:33:52;;;;;;;1.60;1.30;;;7.60;98.20;;;;;;5015371;28;20468;-75
2021/01/21 09:36:20;;;;;;;1.60;1.30;;;7.60;98.20;;;;;;5016296;28;20468;-76
2021/01/21 09:38:46;;;;;;;1.60;1.30;;;7.70;98.20;;;;;;5017332;28;20495;-75
2021/01/21 09:41:14;;;;;;;1.60;1.23;;;7.70;98.20;;;;;;5019005;28;20646;-74
2021/01/21 09:43:41;;;;;;;1.60;1.20;;;7.80;98.20;;;;;;5021394;28;20460;-77
2021/01/21 09:46:08;;;;;;;1.60;1.20;;;7.80;98.20;;;;;;5021906;28;20464;-76
2021/01/21 09:48:34;;;;;;;1.60;1.23;;;7.90;98.20;;;;;;5020671;28;20464;-76
2021/01/21 09:51:01;;;;;;;1.60;1.20;;;7.90;98.20;;;;;;5019613;28;20464;-76
2021/01/21 09:53:28;;;;;;;1.60;1.20;;;8.00;98.20;;;;;;5019306;28;20460;-74
2021/01/21 09:55:55;;;;;;;1.60;1.30;;;8.00;98.20;;;;;;5020213;28;20618;-78
2021/01/21 09:58:23;;;;;;;1.60;1.10;;;8.10;98.20;;;;;;5011242;28;20476;-75
2021/01/21 10:00:50;;;;;;;1.60;1.20;;;8.10;98.20;;;;;;5010562;28;20530;-75
2021/01/21 10:03:17;;;;;;;1.60;1.17;;;8.20;98.20;;;;;;5009231;28;20474;-77
2021/01/21 10:05:44;;;;;;;1.60;1.20;;;8.20;97.90;;;;;;5010690;28;20535;-76
2021/01/21 10:08:10;;;;;;;1.60;1.20;;;8.20;97.80;;;;;;5010255;28;20927;-75
2021/01/21 10:10:37;;;;;;;1.60;1.17;;;8.20;97.90;;;;;;5009770;28;21018;-75
2021/01/21 10:13:03;;;;;;;1.60;1.20;;;8.20;97.80;;;;;;5010367;28;20696;-77
2021/01/21 10:15:31;;;;;;;1.60;1.20;;;8.30;97.70;;;;;;5011854;28;20495;-74
2021/01/21 10:18:00;;;;;;;1.60;1.20;;;8.30;97.90;;;;;;5013112;28;20528;-75
2021/01/21 10:20:26;;;;;;;1.60;1.20;;;8.30;97.60;;;;;;5019269;28;20515;-75
2021/01/21 10:22:53;;;;;;;1.60;1.20;;;8.30;97.20;;;;;;5018475;28;20456;-76
2021/01/21 10:25:19;;;;;;;1.60;1.20;;;8.30;96.90;;;;;;5008060;28;21114;-75
2021/01/21 10:27:47;;;;;;;1.60;1.20;;;8.30;97.50;;;;;;5009402;28;20460;-76
2021/01/21 10:30:15;;;;;;;1.60;1.23;;;8.40;96.70;;;;;;5009758;28;20536;-76
2021/01/21 10:32:42;;;;;;;1.60;1.30;;;8.40;96.80;;;;;;5004746;28;20474;-74
2021/01/21 10:35:10;;;;;;;1.60;1.20;;;8.50;96.60;;;;;;5007037;28;20468;-76
2021/01/21 10:37:36;;;;;;;1.60;1.20;;;8.50;95.70;;;;;;5010150;28;20490;-76
2021/01/21 10:40:04;;;;;;;1.60;1.10;;;8.60;95.90;;;;;;5008311;28;20995;-73
2021/01/21 10:42:30;;;;;;;1.50;1.10;;;8.60;96.00;;;;;;5009984;28;20480;-75
2021/01/21 10:44:57;;;;;;;1.60;1.13;;;8.70;95.80;;;;;;5010285;28;20472;-76
2021/01/21 10:47:23;;;;;;;1.63;1.33;;;8.80;95.30;;;;;;5010616;28;20531;-74
2021/01/21 10:49:51;;;;;;;1.60;1.30;;;8.80;95.40;;;;;;5011862;28;20483;-75
2021/01/21 10:52:17;;;;;;;1.60;1.20;;;8.90;94.90;;;;;;5006856;28;20507;-76
2021/01/21 10:54:44;;;;;;;1.60;1.27;;;8.90;94.40;;;;;;5011578;28;20480;-75
2021/01/21 10:57:10;;;;;;;1.60;1.13;;;8.90;94.20;;;;;;5011118;28;20582;-73
2021/01/21 10:59:37;;;;;;;1.60;1.10;;;8.90;94.30;;;;;;5010045;28;20491;-74
2021/01/21 11:02:03;;;;;;;1.57;1.10;;;8.90;94.40;;;;;;5014985;28;21169;-74
2021/01/21 11:04:30;;;;;;;1.60;1.20;;;8.90;93.90;;;;;;5014363;28;20472;-75
2021/01/21 11:06:58;;;;;;;1.60;1.20;;;8.90;94.20;;;;;;5013078;28;20464;-72
2021/01/21 11:09:35;;;;;;;1.57;1.10;;;8.90;94.60;;;;;;5013975;28;20487;-74
2021/01/21 11:12:02;;;;;;;1.60;1.20;;;8.90;95.00;;;;;;5012218;28;20574;-74
2021/01/21 11:14:28;;;;;;;1.60;1.20;;;8.90;94.10;;;;;;5013803;28;20460;-75
2021/01/21 11:16:55;;;;;;;1.60;1.10;;;8.90;94.50;;;;;;5014193;28;20476;-75
2021/01/21 11:19:21;;;;;;;1.60;1.10;;;8.90;94.40;;;;;;5013995;28;20827;-73
2021/01/21 11:21:50;;;;;;;1.60;1.20;;;9.00;94.10;;;;;;5014081;28;20488;-74
2021/01/21 11:24:18;;;;;;;1.60;1.10;;;9.00;94.30;;;;;;5012379;28;20469;-74
2021/01/21 11:26:44;;;;;;;1.60;1.17;;;9.00;93.80;;;;;;5014901;28;20471;-75
2021/01/21 11:29:11;;;;;;;1.60;1.20;;;9.00;93.30;;;;;;5016740;28;20483;-75
2021/01/21 11:31:37;;;;;;;1.60;1.20;;;9.00;93.00;;;;;;5015856;28;20919;-74
2021/01/21 11:34:04;;;;;;;1.60;1.10;;;9.00;93.00;;;;;;5015134;28;20471;-75
2021/01/21 11:36:30;;;;;;;1.60;1.10;;;9.10;93.60;;;;;;5015127;28;20476;-75
2021/01/21 11:38:57;;;;;;;1.57;1.10;;;9.10;93.00;;;;;;5012129;28;20480;-75
2021/01/21 11:41:24;;;;;;;1.60;1.10;;;9.20;92.50;;;;;;5012207;28;21133;-75
2021/01/21 11:43:50;;;;;;;1.60;1.20;;;9.20;92.40;;;;;;5014477;28;20471;-74
2021/01/21 11:46:17;;;;;;;1.60;1.20;;;9.20;92.50;;;;;;5015096;28;20497;-74
2021/01/21 11:48:44;;;;;;;1.60;1.20;;;9.20;92.70;;;;;;5012237;28;20472;-74
2021/01/21 11:51:11;;;;;;;1.60;1.20;;;9.20;92.30;;;;;;5015862;28;20464;-75
2021/01/21 11:53:37;;;;;;;1.53;1.10;;;9.20;92.10;;;;;;5015361;28;20991;-76
2021/01/21 11:56:05;;;;;;;1.60;1.20;;;9.20;92.20;;;;;;5007591;28;20483;-74
2021/01/21 11:58:32;;;;;;;1.60;1.10;;;9.20;92.50;;;;;;5007544;28;20468;-75
2021/01/21 12:00:59;;;;;;;1.57;1.10;;;9.20;92.50;;;;;;5008625;28;20538;-73
2021/01/21 12:03:26;;;;;;;1.60;1.10;;;9.20;92.10;;;;;;5011354;28;20464;-73
2021/01/21 12:05:53;;;;;;;1.60;1.20;;;9.30;92.30;;;;;;5011554;28;20482;-74
2021/01/21 12:08:19;;;;;;;1.60;1.17;;;9.30;91.60;;;;;;5012167;28;20494;-75
2021/01/21 12:10:46;;;;;;;1.53;1.10;;;9.30;91.60;;;;;;5010505;28;21141;-74
2021/01/21 12:13:12;;;;;;;1.60;1.30;;;9.30;91.70;;;;;;5010242;28;20495;-73
2021/01/21 12:15:40;;;;;;;1.60;1.37;;;9.30;91.60;;;;;;5010794;28;20472;-74
2021/01/21 12:18:06;;;;;;;1.57;1.10;;;9.40;92.30;;;;;;5009282;28;20480;-75
2021/01/21 12:20:33;;;;;;;1.60;1.20;;;9.40;91.60;;;;;;5009979;28;21346;-75
2021/01/21 12:22:59;;;;;;;1.57;1.10;;;9.40;91.40;;;;;;5014373;28;20905;-75
2021/01/21 12:25:26;;;;;;;1.60;1.23;;;9.50;91.20;;;;;;5011452;28;20527;-76
2021/01/21 12:27:52;;;;;;;1.60;1.10;;;9.50;91.50;;;;;;5013092;28;20547;-75
2021/01/21 12:30:20;;;;;;;1.60;1.10;;;9.50;90.60;;;;;;5011708;28;20477;-76
2021/01/21 12:32:47;;;;;;;1.60;1.30;;;9.50;91.00;;;;;;5013923;28;20895;-75
2021/01/21 12:35:14;;;;;;;1.60;1.10;;;9.50;91.00;;;;;;5014673;28;20526;-75
2021/01/21 12:37:41;;;;;;;1.53;1.10;;;9.50;91.50;;;;;;5012366;28;20464;-73
2021/01/21 12:40:08;;;;;;;1.60;1.20;;;9.60;91.00;;;;;;5013472;28;20492;-75
2021/01/21 12:42:35;;;;;;;1.53;1.10;;;9.60;91.20;;;;;;5014966;28;20460;-76
2021/01/21 12:45:02;;;;;;;1.60;1.20;;;9.70;90.70;;;;;;5013730;28;20518;-74
2021/01/21 12:47:28;;;;;;;1.60;1.20;;;9.70;90.60;;;;;;5014120;28;21138;-73
2021/01/21 12:49:56;;;;;;;1.60;1.10;;;9.80;90.70;;;;;;5014026;28;21292;-75
2021/01/21 12:52:22;;;;;;;1.57;1.10;;;9.90;90.30;;;;;;5014741;28;21116;-75
2021/01/21 12:54:49;;;;;;;1.53;1.10;;;9.90;90.00;;;;;;5015473;28;20488;-75
2021/01/21 12:57:17;;;;;;;1.60;1.20;;;10.00;90.30;;;;;;5014133;28;20472;-74
2021/01/21 12:59:43;;;;;;;1.60;1.00;;;10.00;89.80;;;;;;5012812;28;20492;-75
2021/01/21 13:02:11;;;;;;;1.60;1.10;;;10.00;89.20;;;;;;5013612;28;20484;-75
2021/01/21 13:04:37;;;;;;;1.60;1.20;;;10.00;89.20;;;;;;5015278;28;20464;-75